| time (UTC) | temp F | wind direction | speed knots | gust knots | rain 1hr in | rain 24hr in | rain mn in | humidity % | barometer mb |
| 20260906225421 | 90 | 221 | 1.7 | 3.5 | 0.00 | 0.00 | 0.00 | 37 | 1016.5 |
| 20260906224917 | 88 | 352 | 1.7 | 6.1 | 0.00 | 0.00 | 0.00 | 38 | 1016.4 |
| 20260906224413 | 88 | 114 | 1.7 | 5.2 | 0.00 | 0.00 | 0.00 | 37 | 1016.4 |
| 20260906223909 | 88 | 335 | 3.5 | 5.2 | 0.00 | 0.00 | 0.00 | 37 | 1016.7 |
| 20260906223405 | 89 | 326 | 3.5 | 8.7 | 0.00 | 0.00 | 0.00 | 37 | 1016.4 |
| 20260906222903 | 90 | 337 | 0.0 | 7.8 | 0.00 | 0.00 | 0.00 | 35 | 1016.5 |
| 20260906222403 | 90 | 349 | 3.5 | 6.1 | 0.00 | 0.00 | 0.00 | 35 | 1016.7 |
| 20260906221900 | 91 | 48 | 1.7 | 7.0 | 0.00 | 0.00 | 0.00 | 35 | 1016.9 |
| 20260906221359 | 91 | 303 | 1.7 | 4.3 | 0.00 | 0.00 | 0.00 | 34 | 1016.8 |
| 20260906220855 | 89 | 83 | 0.0 | 4.3 | 0.00 | 0.00 | 0.00 | 35 | 1016.9 |
| 20260906220350 | 89 | 59 | 1.7 | 4.3 | 0.00 | 0.00 | 0.00 | 35 | 1016.9 |
| 20260906215849 | 89 | 73 | 4.3 | 7.0 | 0.00 | 0.00 | 0.00 | 37 | 1017.0 |
| 20260906215344 | 90 | 23 | 2.6 | 7.0 | 0.00 | 0.00 | 0.00 | 36 | 1017.0 |
| 20260906214842 | 90 | 324 | 2.6 | 5.2 | 0.00 | 0.00 | 0.00 | 35 | 1017.0 |
| 20260906214342 | 90 | 102 | 2.6 | 2.6 | 0.00 | 0.00 | 0.00 | 35 | 1017.2 |
| 20260906213841 | 89 | 328 | 4.3 | 4.3 | 0.00 | 0.00 | 0.00 | 36 | 1017.4 |
| 20260906213336 | 89 | 75 | 2.6 | 3.5 | 0.00 | 0.00 | 0.00 | 37 | 1017.2 |
| 20260906212833 | 89 | 26 | 0.9 | 4.3 | 0.00 | 0.00 | 0.00 | 36 | 1017.5 |
| 20260906212329 | 89 | 13 | 2.6 | 5.2 | 0.00 | 0.00 | 0.00 | 37 | 1017.5 |
| 20260906211828 | 88 | 57 | 1.7 | 10.4 | 0.00 | 0.00 | 0.00 | 39 | 1017.7 |
| 20260906211324 | 89 | 3 | 2.6 | 5.2 | 0.00 | 0.00 | 0.00 | 37 | 1017.7 |
| 20260906210819 | 89 | 334 | 3.5 | 5.2 | 0.00 | 0.00 | 0.00 | 37 | 1017.7 |
| 20260906210319 | 89 | 94 | 6.1 | 6.1 | 0.00 | 0.00 | 0.00 | 37 | 1018.0 |
| 20260906205814 | 88 | 111 | 0.0 | 3.5 | 0.00 | 0.00 | 0.00 | 37 | 1018.2 |
| 20260906205310 | 88 | 122 | 3.5 | 5.2 | 0.00 | 0.00 | 0.00 | 37 | 1018.1 |
| 20260906204806 | 87 | 341 | 4.3 | 6.1 | 0.00 | 0.00 | 0.00 | 38 | 1018.3 |
| 20260906204305 | 87 | 349 | 1.7 | 6.1 | 0.00 | 0.00 | 0.00 | 38 | 1018.2 |
| 20260906203804 | 87 | 85 | 0.0 | 3.5 | 0.00 | 0.00 | 0.00 | 37 | 1018.3 |
| 20260906203300 | 86 | 297 | 2.6 | 5.2 | 0.00 | 0.00 | 0.00 | 38 | 1018.2 |
| 20260906202756 | 87 | 74 | 6.1 | 6.1 | 0.00 | 0.00 | 0.00 | 38 | 1018.3 |
| 20260906202256 | 87 | 99 | 0.0 | 3.5 | 0.00 | 0.00 | 0.00 | 37 | 1018.1 |
| 20260906201751 | 86 | 114 | 0.0 | 4.3 | 0.00 | 0.00 | 0.00 | 38 | 1018.5 |
| 20260906201250 | 86 | 94 | 1.7 | 3.5 | 0.00 | 0.00 | 0.00 | 38 | 1018.5 |
| 20260906200746 | 87 | 343 | 3.5 | 5.2 | 0.00 | 0.00 | 0.00 | 37 | 1018.8 |
| 20260906200242 | 86 | 125 | 1.7 | 5.2 | 0.00 | 0.00 | 0.00 | 38 | 1018.3 |
| 20260906195737 | 87 | 50 | 2.6 | 4.3 | 0.00 | 0.00 | 0.00 | 37 | 1018.5 |
| 20260906195233 | 87 | 120 | 3.5 | 6.1 | 0.00 | 0.00 | 0.00 | 37 | 1018.4 |
| 20260906194729 | 88 | 85 | 0.0 | 2.6 | 0.00 | 0.00 | 0.00 | 37 | 1018.7 |
| 20260906194225 | 86 | 105 | 1.7 | 3.5 | 0.00 | 0.00 | 0.00 | 38 | 1018.9 |
| 20260906193720 | 86 | 119 | 0.0 | 5.2 | 0.00 | 0.00 | 0.00 | 39 | 1019.1 |
| 20260906193220 | 85 | 112 | 0.0 | 5.2 | 0.00 | 0.00 | 0.00 | 40 | 1018.8 |
| 20260906192716 | 84 | 4 | 3.5 | 6.1 | 0.00 | 0.00 | 0.00 | 40 | 1019.0 |
| 20260906192210 | 85 | 79 | 2.6 | 6.1 | 0.00 | 0.00 | 0.00 | 39 | 1018.9 |
| 20260906191710 | 86 | 33 | 2.6 | 3.5 | 0.00 | 0.00 | 0.00 | 40 | 1019.3 |
| 20260906191204 | 84 | 345 | 1.7 | 7.8 | 0.00 | 0.00 | 0.00 | 41 | 1019.1 |
| 20260906190658 | 84 | 95 | 3.5 | 6.1 | 0.00 | 0.00 | 0.00 | 41 | 1019.3 |
| 20260906190153 | 83 | 111 | 2.6 | 4.3 | 0.00 | 0.00 | 0.00 | 42 | 1019.3 |
| 20260906185652 | 83 | 117 | 4.3 | 4.3 | 0.00 | 0.00 | 0.00 | 42 | 1019.4 |
| 20260906185151 | 84 | 116 | 3.5 | 4.3 | 0.00 | 0.00 | 0.00 | 42 | 1019.5 |
| 20260906184645 | 85 | 61 | 2.6 | 3.5 | 0.00 | 0.00 | 0.00 | 42 | 1019.6 |
| 20260906184141 | 82 | 283 | 1.7 | 5.2 | 0.00 | 0.00 | 0.00 | 44 | 1019.8 |
| 20260906183637 | 84 | 8 | 0.9 | 4.3 | 0.00 | 0.00 | 0.00 | 43 | 1019.8 |
| 20260906183133 | 83 | 346 | 1.7 | 2.6 | 0.00 | 0.00 | 0.00 | 44 | 1019.7 |
| 20260906182627 | 83 | 123 | 1.7 | 6.1 | 0.00 | 0.00 | 0.00 | 44 | 1019.8 |
| 20260906182123 | 84 | 115 | 1.7 | 2.6 | 0.00 | 0.00 | 0.00 | 43 | 1019.8 |
| 20260906181618 | 82 | 75 | 2.6 | 3.5 | 0.00 | 0.00 | 0.00 | 45 | 1020.3 |
| 20260906181114 | 82 | 109 | 1.7 | 2.6 | 0.00 | 0.00 | 0.00 | 44 | 1020.4 |
| 20260906180609 | 82 | 85 | 1.7 | 3.5 | 0.00 | 0.00 | 0.00 | 45 | 1020.4 |
| 20260906180103 | 81 | 68 | 2.6 | 3.5 | 0.00 | 0.00 | 0.00 | 48 | 1020.1 |
| 20260906175602 | 80 | 111 | 0.9 | 3.5 | 0.00 | 0.00 | 0.00 | 49 | 1020.3 |
| 20260906175056 | 80 | 86 | 2.6 | 5.2 | 0.00 | 0.00 | 0.00 | 48 | 1020.3 |
| 20260906174554 | 80 | 355 | 1.7 | 2.6 | 0.00 | 0.00 | 0.00 | 48 | 1020.8 |
| 20260906174050 | 80 | 90 | 1.7 | 4.3 | 0.00 | 0.00 | 0.00 | 49 | 1020.6 |
| 20260906173544 | 80 | 79 | 2.6 | 4.3 | 0.00 | 0.00 | 0.00 | 48 | 1020.7 |
| 20260906173040 | 78 | 7 | 0.0 | 6.1 | 0.00 | 0.00 | 0.00 | 51 | 1020.7 |
| 20260906172535 | 80 | 350 | 2.6 | 3.5 | 0.00 | 0.00 | 0.00 | 51 | 1021.0 |
| 20260906172030 | 81 | 265 | 1.7 | 2.6 | 0.00 | 0.00 | 0.00 | 49 | 1021.1 |
| 20260906171525 | 78 | 110 | 3.5 | 3.5 | 0.00 | 0.00 | 0.00 | 52 | 1021.1 |
| 20260906171021 | 78 | 24 | 0.0 | 4.3 | 0.00 | 0.00 | 0.00 | 52 | 1021.1 |
| 20260906170516 | 78 | 328 | 1.7 | 2.6 | 0.00 | 0.00 | 0.00 | 53 | 1020.9 |
| 20260906170015 | 78 | 6 | 3.5 | 4.3 | 0.00 | 0.00 | 0.00 | 53 | 1021.1 |
| 20260906165512 | 78 | 60 | 1.7 | 2.6 | 0.00 | 0.00 | 0.00 | 53 | 1021.3 |
| 20260906165007 | 77 | 334 | 1.7 | 4.3 | 0.00 | 0.00 | 0.00 | 55 | 1021.5 |
| 20260906164506 | 77 | 90 | 0.9 | 3.5 | 0.00 | 0.00 | 0.00 | 55 | 1021.5 |
| 20260906164003 | 76 | 337 | 0.0 | 2.6 | 0.00 | 0.00 | 0.00 | 54 | 1021.5 |
| 20260906163458 | 76 | 90 | 0.0 | 3.5 | 0.00 | 0.00 | 0.00 | 55 | 1021.7 |
| 20260906162956 | 76 | 10 | 0.0 | 1.7 | 0.00 | 0.00 | 0.00 | 55 | 1021.6 |
| 20260906162455 | 76 | 126 | 0.9 | 2.6 | 0.00 | 0.00 | 0.00 | 56 | 1021.4 |
| 20260906161950 | 75 | 65 | 1.7 | 1.7 | 0.00 | 0.00 | 0.00 | 60 | 1021.4 |
| 20260906161449 | 74 | 327 | 2.6 | 6.1 | 0.00 | 0.00 | 0.00 | 59 | 1021.4 |
| 20260906160949 | 74 | 112 | 1.7 | 2.6 | 0.00 | 0.00 | 0.00 | 59 | 1021.1 |
| 20260906160442 | 75 | 187 | 0.0 | 1.7 | 0.00 | 0.00 | 0.00 | 58 | 1021.4 |
| 20260906155940 | 74 | 125 | 1.7 | 1.7 | 0.00 | 0.00 | 0.00 | 61 | 1021.3 |
| 20260906155434 | 72 | 352 | 0.0 | 1.7 | 0.00 | 0.00 | 0.00 | 63 | 1021.5 |
| 20260906154930 | 72 | 71 | 1.7 | 2.6 | 0.00 | 0.00 | 0.00 | 64 | 1021.3 |
| 20260906154425 | 72 | 83 | 0.0 | 2.6 | 0.00 | 0.00 | 0.00 | 64 | 1021.4 |
| 20260906153923 | 71 | 90 | 3.5 | 6.1 | 0.00 | 0.00 | 0.00 | 65 | 1021.4 |
| 20260906153422 | 71 | 35 | 2.6 | 5.2 | 0.00 | 0.00 | 0.00 | 64 | 1021.3 |
| 20260906152918 | 72 | 72 | 1.7 | 5.2 | 0.00 | 0.00 | 0.00 | 65 | 1021.3 |
| 20260906152413 | 72 | 147 | 1.7 | 3.5 | 0.00 | 0.00 | 0.00 | 66 | 1021.4 |
| 20260906151912 | 71 | 71 | 1.7 | 2.6 | 0.00 | 0.00 | 0.00 | 67 | 1021.5 |
| 20260906151408 | 70 | 26 | 2.6 | 4.3 | 0.00 | 0.00 | 0.00 | 65 | 1021.6 |
| 20260906150903 | 70 | 81 | 0.0 | 3.5 | 0.00 | 0.00 | 0.00 | 66 | 1021.4 |
| 20260906150358 | 70 | 0 | 1.7 | 3.5 | 0.00 | 0.00 | 0.00 | 66 | 1021.5 |
| 20260906145857 | 70 | 45 | 1.7 | 2.6 | 0.00 | 0.00 | 0.00 | 67 | 1021.6 |
| 20260906145351 | 70 | 212 | 1.7 | 1.7 | 0.00 | 0.00 | 0.00 | 67 | 1021.7 |
| 20260906144845 | 69 | 353 | 0.0 | 1.7 | 0.00 | 0.00 | 0.00 | 68 | 1021.6 |
| 20260906144341 | 69 | 90 | 0.9 | 4.3 | 0.00 | 0.00 | 0.00 | 69 | 1021.6 |
| 20260906143841 | 69 | 39 | 2.6 | 3.5 | 0.00 | 0.00 | 0.00 | 68 | 1021.5 |
| 20260906143337 | 69 | 41 | 3.5 | 3.5 | 0.00 | 0.00 | 0.00 | 67 | 1021.9 |
| 20260906142833 | 68 | 132 | 0.0 | 2.6 | 0.00 | 0.00 | 0.00 | 69 | 1021.9 |
| 20260906142327 | 68 | 0 | 0.0 | 3.5 | 0.00 | 0.00 | 0.00 | 71 | 1021.4 |
| 20260906141827 | 68 | 3 | 1.7 | 3.5 | 0.00 | 0.00 | 0.00 | 71 | 1021.5 |
| 20260906141322 | 69 | 14 | 1.7 | 2.6 | 0.00 | 0.00 | 0.00 | 69 | 1021.6 |
| 20260906140820 | 70 | 18 | 0.9 | 2.6 | 0.00 | 0.00 | 0.00 | 65 | 1021.7 |
| 20260906140315 | 69 | 165 | 0.9 | 3.5 | 0.00 | 0.00 | 0.00 | 66 | 1021.9 |
| 20260906135813 | 68 | 209 | 0.0 | 2.6 | 0.00 | 0.00 | 0.00 | 67 | 1021.9 |
| 20260906135308 | 67 | 270 | 1.7 | 1.7 | 0.00 | 0.00 | 0.00 | 67 | 1021.7 |
| 20260906134803 | 66 | 192 | 1.7 | 2.6 | 0.00 | 0.00 | 0.00 | 68 | 1021.9 |
| 20260906134258 | 66 | 180 | 0.0 | 1.7 | 0.00 | 0.00 | 0.00 | 69 | 1021.9 |
| 20260906133754 | 67 | 195 | 0.0 | 0.9 | 0.00 | 0.00 | 0.00 | 68 | 1021.6 |
| 20260906133249 | 66 | 74 | 0.0 | 0.9 | 0.00 | 0.00 | 0.00 | 70 | 1021.9 |
| 20260906132745 | 65 | 18 | 0.0 | 1.7 | 0.00 | 0.00 | 0.00 | 72 | 1021.4 |
| 20260906132240 | 64 | 356 | 1.7 | 1.7 | 0.00 | 0.00 | 0.00 | 73 | 1021.6 |
| 20260906131736 | 63 | 29 | 0.0 | 1.7 | 0.00 | 0.00 | 0.00 | 76 | 1021.4 |
| 20260906131230 | 62 | 180 | 0.0 | 0.0 | 0.00 | 0.00 | 0.00 | 78 | 1021.7 |
| 20260906130726 | 62 | 120 | 1.7 | 1.7 | 0.00 | 0.00 | 0.00 | 78 | 1021.5 |
| 20260906130221 | 61 | 215 | 0.0 | 1.7 | 0.00 | 0.00 | 0.00 | 78 | 1021.5 |
| 20260906125719 | 61 | 252 | 1.7 | 1.7 | 0.00 | 0.00 | 0.00 | 79 | 1021.1 |
| 20260906125218 | 61 | 203 | 0.9 | 0.9 | 0.00 | 0.00 | 0.00 | 79 | 1021.1 |
| 20260906124713 | 61 | 0 | 0.0 | 0.0 | 0.00 | 0.00 | 0.00 | 80 | 1021.4 |
| 20260906124209 | 60 | 255 | 0.0 | 0.9 | 0.00 | 0.00 | 0.00 | 80 | 1021.5 |
| 20260906123707 | 60 | 251 | 0.0 | 1.7 | 0.00 | 0.00 | 0.00 | 80 | 1021.1 |
| 20260906123203 | 60 | 90 | 0.0 | 0.9 | 0.00 | 0.00 | 0.00 | 80 | 1021.4 |
| 20260906122701 | 61 | 221 | 1.7 | 1.7 | 0.00 | 0.00 | 0.00 | 80 | 1021.0 |
| 20260906122157 | 61 | 184 | 0.0 | 1.7 | 0.00 | 0.00 | 0.00 | 79 | 1021.1 |
| 20260906121654 | 61 | 29 | 0.0 | 0.0 | 0.00 | 0.00 | 0.00 | 79 | 1021.4 |
| 20260906121149 | 61 | 165 | 0.0 | 0.9 | 0.00 | 0.00 | 0.00 | 78 | 1021.4 |
| 20260906120645 | 62 | 180 | 0.9 | 1.7 | 0.00 | 0.00 | 0.00 | 78 | 1021.1 |
| 20260906120137 | 62 | 191 | 1.7 | 1.7 | 0.00 | 0.00 | 0.00 | 77 | 1021.3 |
| 20260906115637 | 62 | 243 | 0.0 | 1.7 | 0.00 | 0.00 | 0.00 | 78 | 1021.4 |
| 20260906115132 | 62 | 188 | 0.0 | 1.7 | 0.00 | 0.00 | 0.00 | 78 | 1021.4 |
| 20260906114631 | 62 | 225 | 1.7 | 1.7 | 0.00 | 0.00 | 0.00 | 78 | 1021.1 |
| 20260906114126 | 62 | 195 | 0.9 | 0.9 | 0.00 | 0.00 | 0.00 | 78 | 1021.6 |
| 20260906113620 | 62 | 142 | 0.0 | 1.7 | 0.00 | 0.00 | 0.00 | 78 | 1021.1 |
| 20260906113115 | 63 | 206 | 0.9 | 0.9 | 0.00 | 0.00 | 0.00 | 78 | 1020.8 |
| 20260906112614 | 63 | 255 | 0.0 | 1.7 | 0.00 | 0.00 | 0.00 | 77 | 1021.3 |
| 20260906112111 | 63 | 8 | 0.0 | 1.7 | 0.00 | 0.00 | 0.00 | 77 | 1021.5 |
| 20260906111610 | 63 | 0 | 0.0 | 1.7 | 0.00 | 0.00 | 0.00 | 76 | 1021.3 |
| 20260906111106 | 63 | 14 | 0.0 | 2.6 | 0.00 | 0.00 | 0.00 | 75 | 1020.9 |
| 20260906110606 | 64 | 0 | 0.0 | 2.6 | 0.00 | 0.00 | 0.00 | 74 | 1020.9 |
| 20260906110100 | 64 | 352 | 0.0 | 3.5 | 0.00 | 0.00 | 0.00 | 73 | 1020.9 |
| 20260906105555 | 64 | 0 | 5.2 | 5.2 | 0.00 | 0.00 | 0.00 | 72 | 1021.0 |
| 20260906105051 | 64 | 343 | 3.5 | 4.3 | 0.00 | 0.00 | 0.00 | 70 | 1021.1 |
| 20260906104549 | 64 | 320 | 1.7 | 4.3 | 0.00 | 0.00 | 0.00 | 67 | 1020.9 |
| 20260906104044 | 64 | 0 | 1.7 | 2.6 | 0.00 | 0.00 | 0.00 | 64 | 1021.4 |
| 20260906103542 | 65 | 6 | 2.6 | 4.3 | 0.00 | 0.00 | 0.00 | 63 | 1021.0 |
| 20260906103038 | 65 | 6 | 0.9 | 3.5 | 0.00 | 0.00 | 0.00 | 61 | 1020.9 |
| 20260906102537 | 65 | 356 | 0.0 | 2.6 | 0.00 | 0.00 | 0.00 | 61 | 1020.7 |
| 20260906102033 | 65 | 356 | 1.7 | 3.5 | 0.00 | 0.00 | 0.00 | 61 | 1020.8 |
| 20260906101527 | 65 | 352 | 0.0 | 2.6 | 0.00 | 0.00 | 0.00 | 61 | 1020.7 |
| 20260906101022 | 65 | 286 | 0.9 | 1.7 | 0.00 | 0.00 | 0.00 | 61 | 1020.7 |
| 20260906100518 | 65 | 264 | 0.0 | 0.0 | 0.00 | 0.00 | 0.00 | 60 | 1020.8 |
| 20260906100012 | 65 | 352 | 0.0 | 0.0 | 0.00 | 0.00 | 0.00 | 61 | 1020.8 |
| 20260906095507 | 65 | 73 | 1.7 | 1.7 | 0.00 | 0.00 | 0.00 | 61 | 1020.9 |
| 20260906095003 | 66 | 261 | 0.0 | 0.0 | 0.00 | 0.00 | 0.00 | 60 | 1021.0 |
| 20260906094501 | 66 | 172 | 0.0 | 0.0 | 0.00 | 0.00 | 0.00 | 59 | 1021.0 |
| 20260906093957 | 66 | 240 | 0.0 | 0.9 | 0.00 | 0.00 | 0.00 | 60 | 1020.7 |
| 20260906093454 | 66 | 0 | 0.0 | 0.9 | 0.00 | 0.00 | 0.00 | 60 | 1021.0 |
| 20260906092954 | 66 | 246 | 0.0 | 1.7 | 0.00 | 0.00 | 0.00 | 59 | 1020.8 |
| 20260906092454 | 66 | 144 | 0.0 | 1.7 | 0.00 | 0.00 | 0.00 | 57 | 1020.8 |
| 20260906091949 | 67 | 203 | 0.0 | 0.9 | 0.00 | 0.00 | 0.00 | 57 | 1020.7 |
| 20260906091445 | 68 | 234 | 0.0 | 0.9 | 0.00 | 0.00 | 0.00 | 56 | 1020.8 |
| 20260906090941 | 68 | 337 | 0.9 | 1.7 | 0.00 | 0.00 | 0.00 | 55 | 1020.6 |
| 20260906090436 | 67 | 311 | 0.0 | 1.7 | 0.00 | 0.00 | 0.00 | 57 | 1020.7 |
| 20260906085930 | 67 | 200 | 0.0 | 0.0 | 0.00 | 0.00 | 0.00 | 58 | 1020.7 |
| 20260906085429 | 68 | 57 | 1.7 | 1.7 | 0.00 | 0.00 | 0.00 | 57 | 1020.2 |
| 20260906084928 | 68 | 200 | 0.0 | 1.7 | 0.00 | 0.00 | 0.00 | 57 | 1020.2 |
| 20260906084424 | 68 | 98 | 0.9 | 1.7 | 0.00 | 0.00 | 0.00 | 56 | 1020.3 |
| 20260906083923 | 69 | 0 | 0.0 | 0.0 | 0.00 | 0.00 | 0.00 | 56 | 1020.6 |
| 20260906083418 | 69 | 14 | 0.0 | 1.7 | 0.00 | 0.00 | 0.00 | 56 | 1020.7 |
| 20260906082917 | 69 | 15 | 0.0 | 1.7 | 0.00 | 0.00 | 0.00 | 52 | 1020.3 |
| 20260906082413 | 71 | 126 | 0.9 | 1.7 | 0.00 | 0.00 | 0.00 | 50 | 1020.1 |
| 20260906081909 | 71 | 180 | 0.0 | 0.9 | 0.00 | 0.00 | 0.00 | 49 | 1020.3 |
| 20260906081404 | 71 | 90 | 0.0 | 1.7 | 0.00 | 0.00 | 0.00 | 49 | 1020.2 |
| 20260906080900 | 72 | 197 | 1.7 | 4.3 | 0.00 | 0.00 | 0.00 | 48 | 1020.1 |
| 20260906080357 | 72 | 254 | 0.0 | 3.5 | 0.00 | 0.00 | 0.00 | 47 | 1019.8 |
| 20260906075855 | 73 | 239 | 4.3 | 7.8 | 0.00 | 0.00 | 0.00 | 47 | 1020.2 |
| 20260906075351 | 72 | 273 | 2.6 | 6.1 | 0.00 | 0.00 | 0.00 | 47 | 1020.3 |
| 20260906074846 | 73 | 239 | 2.6 | 2.6 | 0.00 | 0.00 | 0.00 | 47 | 1020.4 |
| 20260906074346 | 73 | 214 | 2.6 | 4.3 | 0.00 | 0.00 | 0.00 | 47 | 1020.3 |
| 20260906073844 | 73 | 229 | 1.7 | 4.3 | 0.00 | 0.00 | 0.00 | 47 | 1020.3 |
| 20260906073339 | 73 | 255 | 2.6 | 5.2 | 0.00 | 0.00 | 0.00 | 46 | 1020.1 |
| 20260906072836 | 73 | 240 | 7.0 | 7.8 | 0.00 | 0.00 | 0.00 | 47 | 1020.0 |
| 20260906072332 | 72 | 258 | 5.2 | 5.2 | 0.00 | 0.00 | 0.00 | 48 | 1020.2 |
| 20260906071827 | 72 | 238 | 2.6 | 4.3 | 0.00 | 0.00 | 0.00 | 49 | 1020.2 |
| 20260906071322 | 72 | 300 | 0.0 | 7.8 | 0.00 | 0.00 | 0.00 | 49 | 1020.2 |
| 20260906070818 | 72 | 291 | 4.3 | 11.3 | 0.00 | 0.00 | 0.00 | 49 | 1020.6 |
| 20260906070313 | 72 | 227 | 2.6 | 2.6 | 0.00 | 0.00 | 0.00 | 50 | 1020.3 |
| 20260906065808 | 72 | 357 | 4.3 | 5.2 | 0.00 | 0.00 | 0.00 | 49 | 1020.2 |
| 20260906065305 | 73 | 0 | 1.7 | 4.3 | 0.00 | 0.00 | 0.00 | 49 | 1020.7 |
| 20260906064759 | 73 | 77 | 0.9 | 3.5 | 0.00 | 0.00 | 0.00 | 48 | 1020.2 |
| 20260906064255 | 73 | 15 | 0.0 | 2.6 | 0.00 | 0.00 | 0.00 | 48 | 1020.3 |
| 20260906063749 | 73 | 229 | 2.6 | 5.2 | 0.00 | 0.00 | 0.00 | 48 | 1020.4 |
| 20260906063245 | 73 | 148 | 0.0 | 1.7 | 0.00 | 0.00 | 0.00 | 49 | 1020.7 |
| 20260906062740 | 72 | 11 | 5.2 | 5.2 | 0.00 | 0.00 | 0.00 | 49 | 1020.6 |
| 20260906062239 | 72 | 29 | 0.0 | 1.7 | 0.00 | 0.00 | 0.00 | 50 | 1020.6 |
| 20260906061735 | 73 | 220 | 1.7 | 2.6 | 0.00 | 0.00 | 0.00 | 48 | 1020.4 |
| 20260906061231 | 72 | 112 | 0.0 | 1.7 | 0.00 | 0.00 | 0.00 | 50 | 1020.6 |
| 20260906060726 | 73 | 223 | 3.5 | 3.5 | 0.00 | 0.00 | 0.00 | 49 | 1020.6 |
| 20260906060224 | 73 | 243 | 0.9 | 3.5 | 0.00 | 0.00 | 0.00 | 49 | 1020.8 |
| 20260906055719 | 73 | 0 | 0.0 | 2.6 | 0.00 | 0.00 | 0.00 | 50 | 1020.7 |
| 20260906055214 | 73 | 191 | 2.6 | 7.0 | 0.00 | 0.00 | 0.00 | 50 | 1020.7 |
| 20260906054709 | 72 | 194 | 3.5 | 4.3 | 0.00 | 0.00 | 0.00 | 52 | 1020.8 |
| 20260906054204 | 73 | 195 | 0.0 | 4.3 | 0.00 | 0.00 | 0.00 | 54 | 1020.8 |
| 20260906053701 | 73 | 246 | 2.6 | 7.0 | 0.00 | 0.00 | 0.00 | 53 | 1021.0 |
| 20260906053156 | 73 | 190 | 2.6 | 4.3 | 0.00 | 0.00 | 0.00 | 53 | 1020.8 |
| 20260906052651 | 74 | 215 | 0.9 | 9.6 | 0.00 | 0.00 | 0.00 | 51 | 1021.0 |
| 20260906052148 | 75 | 257 | 1.7 | 6.1 | 0.00 | 0.00 | 0.00 | 49 | 1021.0 |
| 20260906051644 | 76 | 254 | 0.0 | 3.5 | 0.00 | 0.00 | 0.00 | 45 | 1021.3 |
| 20260906051143 | 76 | 263 | 2.6 | 3.5 | 0.00 | 0.00 | 0.00 | 44 | 1021.1 |
| 20260906050639 | 77 | 270 | 0.0 | 1.7 | 0.00 | 0.00 | 0.00 | 43 | 1021.6 |
| 20260906050134 | 77 | 270 | 1.7 | 1.7 | 0.00 | 0.00 | 0.00 | 43 | 1021.4 |
| 20260906045632 | 77 | 187 | 0.9 | 4.3 | 0.00 | 0.00 | 0.00 | 43 | 1021.4 |
| 20260906045128 | 77 | 247 | 1.7 | 5.2 | 0.00 | 0.00 | 0.00 | 42 | 1021.6 |
| 20260906044624 | 78 | 191 | 3.5 | 7.8 | 0.00 | 0.00 | 0.00 | 41 | 1021.4 |
| 20260906044119 | 78 | 189 | 4.3 | 10.4 | 0.00 | 0.00 | 0.00 | 39 | 1021.5 |
| 20260906043615 | 79 | 180 | 1.7 | 7.8 | 0.00 | 0.00 | 0.00 | 39 | 1021.3 |
| 20260906043110 | 79 | 165 | 3.5 | 7.0 | 0.00 | 0.00 | 0.00 | 38 | 1021.3 |
| 20260906042609 | 79 | 193 | 2.6 | 9.6 | 0.00 | 0.00 | 0.00 | 39 | 1021.1 |
| 20260906042104 | 79 | 180 | 2.6 | 7.8 | 0.00 | 0.00 | 0.00 | 38 | 1020.7 |
| 20260906041600 | 78 | 225 | 3.5 | 4.3 | 0.00 | 0.00 | 0.00 | 38 | 1020.3 |
| 20260906041055 | 77 | 285 | 0.0 | 3.5 | 0.00 | 0.00 | 0.00 | 39 | 1020.2 |
| 20260906040550 | 76 | 261 | 0.0 | 3.5 | 0.00 | 0.00 | 0.00 | 40 | 1020.2 |
| 20260906040046 | 75 | 270 | 0.0 | 1.7 | 0.00 | 0.00 | 0.00 | 42 | 1020.4 |
| 20260906035541 | 75 | 78 | 1.7 | 2.6 | 0.00 | 0.00 | 0.00 | 42 | 1020.1 |
| 20260906035037 | 75 | 270 | 0.9 | 1.7 | 0.00 | 0.00 | 0.00 | 43 | 1020.2 |
| 20260906034536 | 75 | 0 | 0.9 | 0.9 | 0.00 | 0.00 | 0.00 | 42 | 1020.0 |
| 20260906034031 | 76 | 120 | 0.0 | 1.7 | 0.00 | 0.00 | 0.00 | 41 | 1019.8 |
| 20260906033526 | 77 | 80 | 2.6 | 2.6 | 0.00 | 0.00 | 0.00 | 39 | 1019.5 |
| 20260906033022 | 77 | 237 | 1.7 | 2.6 | 0.00 | 0.00 | 0.00 | 39 | 1019.8 |
| 20260906032519 | 77 | 110 | 1.7 | 1.7 | 0.00 | 0.00 | 0.00 | 39 | 1019.8 |
| 20260906032018 | 78 | 231 | 2.6 | 2.6 | 0.00 | 0.00 | 0.00 | 37 | 1019.6 |
| 20260906031514 | 78 | 159 | 1.7 | 4.3 | 0.00 | 0.00 | 0.00 | 36 | 1019.8 |
| 20260906031003 | 78 | 143 | 1.7 | 2.6 | 0.00 | 0.00 | 0.00 | 36 | 1019.6 |
| 20260906030458 | 78 | 232 | 5.2 | 5.2 | 0.00 | 0.00 | 0.00 | 36 | 1019.6 |
| 20260906025957 | 77 | 180 | 1.7 | 2.6 | 0.00 | 0.00 | 0.00 | 37 | 1019.7 |
| 20260906025457 | 77 | 228 | 1.7 | 2.6 | 0.00 | 0.00 | 0.00 | 37 | 1019.3 |
| 20260906024955 | 77 | 270 | 0.9 | 1.7 | 0.00 | 0.00 | 0.00 | 38 | 1019.1 |
| 20260906024450 | 77 | 236 | 1.7 | 2.6 | 0.00 | 0.00 | 0.00 | 38 | 1019.1 |
| 20260906023945 | 77 | 240 | 0.0 | 0.9 | 0.00 | 0.00 | 0.00 | 38 | 1019.0 |
| 20260906023441 | 78 | 151 | 0.0 | 1.7 | 0.00 | 0.00 | 0.00 | 36 | 1018.8 |
| 20260906022936 | 78 | 140 | 0.0 | 1.7 | 0.00 | 0.00 | 0.00 | 36 | 1018.9 |
| 20260906022431 | 79 | 172 | 0.0 | 1.7 | 0.00 | 0.00 | 0.00 | 35 | 1018.9 |
| 20260906021926 | 78 | 180 | 0.0 | 0.0 | 0.00 | 0.00 | 0.00 | 35 | 1019.0 |
| 20260906021426 | 79 | 157 | 0.0 | 0.9 | 0.00 | 0.00 | 0.00 | 35 | 1018.8 |
| 20260906020920 | 80 | 187 | 0.0 | 0.0 | 0.00 | 0.00 | 0.00 | 34 | 1018.8 |
| 20260906020415 | 80 | 187 | 0.0 | 0.9 | 0.00 | 0.00 | 0.00 | 33 | 1018.9 |
| 20260906015909 | 80 | 114 | 0.0 | 0.0 | 0.00 | 0.00 | 0.00 | 33 | 1018.8 |
| 20260906015409 | 81 | 270 | 0.0 | 0.0 | 0.00 | 0.00 | 0.00 | 33 | 1018.8 |
| 20260906014908 | 81 | 239 | 1.7 | 1.7 | 0.00 | 0.00 | 0.00 | 33 | 1018.9 |
| 20260906014403 | 81 | 262 | 0.0 | 3.5 | 0.00 | 0.00 | 0.00 | 33 | 1018.8 |
| 20260906013859 | 81 | 228 | 1.7 | 2.6 | 0.00 | 0.00 | 0.00 | 34 | 1018.9 |
| 20260906013355 | 81 | 180 | 0.0 | 1.7 | 0.00 | 0.00 | 0.00 | 35 | 1018.8 |
| 20260906012850 | 81 | 221 | 1.7 | 2.6 | 0.00 | 0.00 | 0.00 | 35 | 1018.4 |
| 20260906012344 | 81 | 246 | 0.9 | 0.9 | 0.00 | 0.00 | 0.00 | 35 | 1018.5 |
| 20260906011844 | 82 | 234 | 0.0 | 1.7 | 0.00 | 0.00 | 0.00 | 34 | 1018.8 |
| 20260906011339 | 82 | 270 | 0.0 | 0.0 | 0.00 | 0.00 | 0.00 | 34 | 1018.4 |
| 20260906010835 | 82 | 270 | 0.0 | 2.6 | 0.00 | 0.00 | 0.00 | 33 | 1018.7 |
| 20260906010331 | 83 | 286 | 0.0 | 2.6 | 0.00 | 0.00 | 0.00 | 33 | 1018.5 |
| 20260906005826 | 84 | 270 | 0.0 | 1.7 | 0.00 | 0.00 | 0.00 | 32 | 1018.7 |
| 20260906005325 | 84 | 297 | 0.0 | 2.6 | 0.00 | 0.00 | 0.00 | 32 | 1018.7 |
| 20260906004824 | 84 | 259 | 0.0 | 1.7 | 0.00 | 0.00 | 0.00 | 32 | 1018.4 |
| 20260906004324 | 85 | 249 | 0.0 | 1.7 | 0.00 | 0.00 | 0.00 | 32 | 1018.8 |
| 20260906003819 | 85 | 0 | 0.0 | 2.6 | 0.00 | 0.00 | 0.00 | 31 | 1018.5 |
| 20260906003315 | 85 | 261 | 0.0 | 0.0 | 0.00 | 0.00 | 0.00 | 31 | 1018.4 |
| 20260906002810 | 86 | 237 | 0.0 | 0.0 | 0.00 | 0.00 | 0.00 | 32 | 1018.4 |
| 20260906002309 | 86 | 234 | 0.0 | 0.9 | 0.00 | 0.00 | 0.00 | 31 | 1018.7 |
| 20260906001805 | 86 | 337 | 0.0 | 1.7 | 0.00 | 0.00 | 0.00 | 29 | 1018.3 |
| 20260906001301 | 87 | 23 | 0.0 | 1.7 | 0.00 | 0.00 | 0.00 | 29 | 1018.5 |
| 20260906000756 | 87 | 279 | 0.0 | 0.9 | 0.00 | 0.00 | 0.00 | 29 | 1018.3 |
| 20260906000256 | 87 | 180 | 0.0 | 0.0 | 0.00 | 0.00 | 0.00 | 29 | 1018.4 |
| 20260905235751 | 87 | 279 | 0.0 | 1.7 | 0.00 | 0.00 | 0.00 | 29 | 1018.3 |
| 20260905235250 | 87 | 90 | 0.0 | 1.7 | 0.00 | 0.00 | 0.00 | 29 | 1018.4 |
| 20260905234746 | 88 | 180 | 0.0 | 2.6 | 0.00 | 0.00 | 0.00 | 28 | 1018.5 |
| 20260905234241 | 88 | 26 | 1.7 | 3.5 | 0.00 | 0.00 | 0.00 | 27 | 1018.2 |
| 20260905233736 | 89 | 23 | 2.6 | 5.2 | 0.00 | 0.00 | 0.00 | 26 | 1018.5 |
| 20260905233236 | 91 | 5 | 1.7 | 4.3 | 0.00 | 0.00 | 0.00 | 26 | 1018.3 |
| 20260905232730 | 92 | 84 | 1.7 | 3.5 | 0.00 | 0.00 | 0.00 | 27 | 1018.3 |
| 20260905232226 | 91 | 102 | 3.5 | 7.8 | 0.00 | 0.00 | 0.00 | 26 | 1018.1 |
| 20260905231722 | 91 | 81 | 1.7 | 4.3 | 0.00 | 0.00 | 0.00 | 26 | 1018.2 |
| 20260905231217 | 92 | 131 | 1.7 | 2.6 | 0.00 | 0.00 | 0.00 | 26 | 1018.0 |
| 20260905230713 | 91 | 356 | 1.7 | 3.5 | 0.00 | 0.00 | 0.00 | 25 | 1018.2 |
| 20260905230211 | 92 | 114 | 0.0 | 4.3 | 0.00 | 0.00 | 0.00 | 25 | 1018.2 |
| 20260905225710 | 94 | 135 | 1.7 | 4.3 | 0.00 | 0.00 | 0.00 | 24 | 1018.0 |